LIC0243 NZNS-NZRO
Flight info
| Callsign | LIC0243 |
|---|---|
| Flight time | 1h 2m |
| Altitude | 26000 |
| Route | SNAPA Q438 TM H247 IBAMU |
| Aircraft | SF50/L-BDGRSWY/LB2U2 |
Departure
| Time | 2026-05-05 15:17 |
|---|---|
| Airport | Nelson Airport (NZNS) |
Arrival
| Time | 2026-05-05 16:19 |
|---|---|
| Airport | Rotorua Regional Airport (NZRO) |
| Time | Latitude | Longitude | Altitude | Speed | Heading |
|---|---|---|---|---|---|
| 2026-05-05 15:09 | -41.30024 | 173.22400 | 23 ft | 0 kts | 220° |
| 2026-05-05 15:13 | -41.30025 | 173.22398 | 23 ft | 0 kts | 224° |
| 2026-05-05 15:13 | -41.30027 | 173.22389 | 23 ft | 2 kts | 297° |
| 2026-05-05 15:13 | -41.30014 | 173.22383 | 22 ft | 2 kts | 351° |
| 2026-05-05 15:13 | -41.29992 | 173.22372 | 20 ft | 3 kts | 330° |
| 2026-05-05 15:14 | -41.29970 | 173.22331 | 17 ft | 8 kts | 266° |
| 2026-05-05 15:14 | -41.30004 | 173.22270 | 16 ft | 9 kts | 227° |
| 2026-05-05 15:14 | -41.30060 | 173.22205 | 15 ft | 11 kts | 214° |
| 2026-05-05 15:14 | -41.30121 | 173.22134 | 14 ft | 12 kts | 220° |
| 2026-05-05 15:15 | -41.30185 | 173.22057 | 13 ft | 11 kts | 226° |
| 2026-05-05 15:15 | -41.30184 | 173.21988 | 15 ft | 7 kts | 319° |
| 2026-05-05 15:15 | -41.30170 | 173.21971 | 15 ft | 1 kts | 320° |
| 2026-05-05 15:15 | -41.30123 | 173.21939 | 15 ft | 14 kts | 17° |
| 2026-05-05 15:16 | -41.30047 | 173.21995 | 13 ft | 6 kts | 41° |
| 2026-05-05 15:16 | -41.30044 | 173.21999 | 13 ft | 1 kts | 36° |
| 2026-05-05 15:16 | -41.29851 | 173.22227 | 15 ft | 78 kts | 41° |
| 2026-05-05 15:16 | -41.29318 | 173.22836 | 245 ft | 111 kts | 42° |
| 2026-05-05 15:17 | -41.28655 | 173.23593 | 571 ft | 146 kts | 42° |
| 2026-05-05 15:17 | -41.27825 | 173.24588 | 1151 ft | 167 kts | 36° |
| 2026-05-05 15:17 | -41.26818 | 173.25021 | 2143 ft | 154 kts | 3° |
| 2026-05-05 15:17 | -41.25803 | 173.25365 | 3018 ft | 155 kts | 13° |
| 2026-05-05 15:18 | -41.24822 | 173.25851 | 3709 ft | 154 kts | 17° |
| 2026-05-05 15:18 | -41.23813 | 173.26431 | 4244 ft | 161 kts | 18° |
| 2026-05-05 15:18 | -41.22802 | 173.27051 | 4797 ft | 164 kts | 19° |
| 2026-05-05 15:18 | -41.21768 | 173.27707 | 5363 ft | 166 kts | 20° |
| 2026-05-05 15:19 | -41.20732 | 173.28371 | 5906 ft | 168 kts | 20° |
| 2026-05-05 15:19 | -41.19682 | 173.29048 | 6444 ft | 169 kts | 19° |
| 2026-05-05 15:19 | -41.18623 | 173.29741 | 6982 ft | 172 kts | 25° |
| 2026-05-05 15:19 | -41.17659 | 173.30688 | 7515 ft | 174 kts | 30° |
| 2026-05-05 15:20 | -41.16705 | 173.31653 | 8023 ft | 174 kts | 31° |
| 2026-05-05 15:20 | -41.15745 | 173.32626 | 8526 ft | 175 kts | 31° |
| 2026-05-05 15:20 | -41.14786 | 173.33600 | 9015 ft | 175 kts | 31° |
| 2026-05-05 15:20 | -41.13818 | 173.34584 | 9510 ft | 175 kts | 31° |
| 2026-05-05 15:21 | -41.12866 | 173.35551 | 9975 ft | 175 kts | 31° |
| 2026-05-05 15:21 | -41.11904 | 173.36531 | 10412 ft | 176 kts | 31° |
| 2026-05-05 15:21 | -41.10926 | 173.37524 | 10839 ft | 178 kts | 31° |
| 2026-05-05 15:21 | -41.09944 | 173.38521 | 11275 ft | 179 kts | 31° |
| 2026-05-05 15:22 | -41.08961 | 173.39519 | 11686 ft | 180 kts | 32° |
| 2026-05-05 15:22 | -41.07958 | 173.40538 | 12082 ft | 182 kts | 32° |
| 2026-05-05 15:22 | -41.06961 | 173.41548 | 12493 ft | 183 kts | 32° |
| 2026-05-05 15:22 | -41.05954 | 173.42569 | 12905 ft | 184 kts | 32° |
| 2026-05-05 15:23 | -41.04935 | 173.43602 | 13301 ft | 185 kts | 32° |
| 2026-05-05 15:23 | -41.03917 | 173.44634 | 13696 ft | 186 kts | 32° |
| 2026-05-05 15:23 | -41.02884 | 173.45680 | 14100 ft | 186 kts | 32° |
| 2026-05-05 15:23 | -41.01862 | 173.46713 | 14466 ft | 188 kts | 32° |
| 2026-05-05 15:24 | -41.00823 | 173.47768 | 14827 ft | 188 kts | 32° |
| 2026-05-05 15:24 | -40.99781 | 173.48820 | 15189 ft | 189 kts | 32° |
| 2026-05-05 15:24 | -40.98731 | 173.49881 | 15535 ft | 191 kts | 32° |
| 2026-05-05 15:24 | -40.97681 | 173.50943 | 15880 ft | 192 kts | 33° |
| 2026-05-05 15:25 | -40.96625 | 173.52011 | 16222 ft | 192 kts | 32° |
| 2026-05-05 15:25 | -40.95552 | 173.53093 | 16543 ft | 194 kts | 32° |
| 2026-05-05 15:25 | -40.94472 | 173.54185 | 16862 ft | 195 kts | 33° |
| 2026-05-05 15:25 | -40.93400 | 173.55264 | 17174 ft | 197 kts | 33° |
| 2026-05-05 15:26 | -40.92304 | 173.56372 | 17515 ft | 197 kts | 33° |
| 2026-05-05 15:26 | -40.91218 | 173.57466 | 17862 ft | 198 kts | 33° |
| 2026-05-05 15:26 | -40.90129 | 173.58562 | 18200 ft | 199 kts | 33° |
| 2026-05-05 15:26 | -40.89021 | 173.59679 | 18532 ft | 200 kts | 33° |
| 2026-05-05 15:27 | -40.87764 | 173.60290 | 18804 ft | 195 kts | 353° |
| 2026-05-05 15:27 | -40.86606 | 173.59447 | 19082 ft | 199 kts | 309° |
| 2026-05-05 15:27 | -40.86272 | 173.57686 | 19372 ft | 211 kts | 265° |
| 2026-05-05 15:27 | -40.87015 | 173.56007 | 19657 ft | 224 kts | 222° |
| 2026-05-05 15:28 | -40.88511 | 173.55374 | 19957 ft | 233 kts | 179° |
| 2026-05-05 15:28 | -40.89981 | 173.56175 | 20225 ft | 234 kts | 136° |
| 2026-05-05 15:28 | -40.90710 | 173.58019 | 20488 ft | 228 kts | 93° |
| 2026-05-05 15:28 | -40.90361 | 173.59955 | 20751 ft | 219 kts | 51° |
| 2026-05-05 15:29 | -40.89159 | 173.61028 | 20994 ft | 211 kts | 9° |
| 2026-05-05 15:29 | -40.87763 | 173.60695 | 21226 ft | 209 kts | 326° |
| 2026-05-05 15:29 | -40.86573 | 173.59601 | 21439 ft | 211 kts | 345° |
| 2026-05-05 15:29 | -40.85128 | 173.59834 | 21656 ft | 219 kts | 27° |
| 2026-05-05 15:30 | -40.84120 | 173.61362 | 21904 ft | 227 kts | 60° |
| 2026-05-05 15:30 | -40.83399 | 173.63203 | 22141 ft | 228 kts | 60° |
| 2026-05-05 15:30 | -40.82662 | 173.65056 | 22378 ft | 228 kts | 54° |
| 2026-05-05 15:30 | -40.81545 | 173.66496 | 22600 ft | 225 kts | 37° |
| 2026-05-05 15:31 | -40.80318 | 173.67778 | 22818 ft | 226 kts | 34° |
| 2026-05-05 15:31 | -40.79055 | 173.69006 | 23026 ft | 227 kts | 33° |
| 2026-05-05 15:31 | -40.77763 | 173.70215 | 23236 ft | 229 kts | 32° |
| 2026-05-05 15:31 | -40.76439 | 173.71426 | 23453 ft | 230 kts | 32° |
| 2026-05-05 15:32 | -40.75130 | 173.72606 | 23656 ft | 231 kts | 32° |
| 2026-05-05 15:32 | -40.73790 | 173.73807 | 23860 ft | 233 kts | 32° |
| 2026-05-05 15:32 | -40.72464 | 173.74991 | 24074 ft | 233 kts | 32° |
| 2026-05-05 15:32 | -40.71105 | 173.76204 | 24280 ft | 234 kts | 31° |
| 2026-05-05 15:33 | -40.69757 | 173.77400 | 24485 ft | 235 kts | 31° |
| 2026-05-05 15:33 | -40.68393 | 173.78613 | 24687 ft | 236 kts | 31° |
| 2026-05-05 15:33 | -40.67034 | 173.79816 | 24877 ft | 237 kts | 32° |
| 2026-05-05 15:33 | -40.65663 | 173.81030 | 25065 ft | 239 kts | 32° |
| 2026-05-05 15:34 | -40.64293 | 173.82246 | 25252 ft | 240 kts | 32° |
| 2026-05-05 15:34 | -40.62901 | 173.83478 | 25444 ft | 241 kts | 32° |
| 2026-05-05 15:34 | -40.61518 | 173.84703 | 25629 ft | 241 kts | 32° |
| 2026-05-05 15:34 | -40.60119 | 173.85941 | 25801 ft | 243 kts | 32° |
| 2026-05-05 15:35 | -40.58707 | 173.87189 | 25977 ft | 244 kts | 32° |
| 2026-05-05 15:35 | -40.57301 | 173.88434 | 26159 ft | 244 kts | 32° |
| 2026-05-05 15:35 | -40.55898 | 173.89673 | 26331 ft | 245 kts | 32° |
| 2026-05-05 15:35 | -40.54462 | 173.90941 | 26377 ft | 251 kts | 32° |
| 2026-05-05 15:36 | -40.52990 | 173.92241 | 26384 ft | 258 kts | 32° |
| 2026-05-05 15:36 | -40.51491 | 173.93561 | 26384 ft | 264 kts | 32° |
| 2026-05-05 15:36 | -40.49953 | 173.94917 | 26384 ft | 267 kts | 32° |
| 2026-05-05 15:36 | -40.48412 | 173.96274 | 26381 ft | 268 kts | 32° |
| 2026-05-05 15:37 | -40.46860 | 173.97641 | 26380 ft | 269 kts | 32° |
| 2026-05-05 15:37 | -40.45320 | 173.98996 | 26381 ft | 269 kts | 32° |
| 2026-05-05 15:37 | -40.43751 | 174.00375 | 26380 ft | 270 kts | 32° |
| 2026-05-05 15:37 | -40.42208 | 174.01732 | 26379 ft | 270 kts | 32° |
| 2026-05-05 15:38 | -40.40653 | 174.03098 | 26380 ft | 270 kts | 32° |
| 2026-05-05 15:38 | -40.39079 | 174.04481 | 26382 ft | 270 kts | 32° |
| 2026-05-05 15:38 | -40.37523 | 174.05847 | 26382 ft | 271 kts | 32° |
| 2026-05-05 15:38 | -40.35966 | 174.07213 | 26380 ft | 271 kts | 32° |
| 2026-05-05 15:39 | -40.34406 | 174.08580 | 26380 ft | 271 kts | 32° |
| 2026-05-05 15:39 | -40.32840 | 174.09952 | 26378 ft | 271 kts | 32° |
| 2026-05-05 15:39 | -40.31270 | 174.11327 | 26379 ft | 271 kts | 32° |
| 2026-05-05 15:39 | -40.29698 | 174.12712 | 26379 ft | 271 kts | 32° |
| 2026-05-05 15:40 | -40.28138 | 174.14090 | 26381 ft | 271 kts | 32° |
| 2026-05-05 15:40 | -40.26593 | 174.15457 | 26379 ft | 271 kts | 32° |
| 2026-05-05 15:40 | -40.25030 | 174.16836 | 26375 ft | 272 kts | 32° |
| 2026-05-05 15:40 | -40.23460 | 174.18222 | 26374 ft | 272 kts | 32° |
| 2026-05-05 15:41 | -40.21894 | 174.19601 | 26368 ft | 272 kts | 32° |
| 2026-05-05 15:41 | -40.20311 | 174.20996 | 26369 ft | 272 kts | 32° |
| 2026-05-05 15:41 | -40.18757 | 174.22365 | 26370 ft | 272 kts | 32° |
| 2026-05-05 15:41 | -40.17178 | 174.23753 | 26368 ft | 272 kts | 33° |
| 2026-05-05 15:42 | -40.15612 | 174.25133 | 26368 ft | 272 kts | 33° |
| 2026-05-05 15:42 | -40.14059 | 174.26498 | 26373 ft | 272 kts | 33° |
| 2026-05-05 15:42 | -40.12477 | 174.27890 | 26377 ft | 272 kts | 32° |
| 2026-05-05 15:42 | -40.10916 | 174.29262 | 26379 ft | 272 kts | 32° |
| 2026-05-05 15:43 | -40.09349 | 174.30635 | 26380 ft | 272 kts | 32° |
| 2026-05-05 15:43 | -40.07776 | 174.32016 | 26383 ft | 272 kts | 32° |
| 2026-05-05 15:43 | -40.06205 | 174.33394 | 26380 ft | 272 kts | 32° |
| 2026-05-05 15:43 | -40.04649 | 174.34758 | 26379 ft | 272 kts | 32° |
| 2026-05-05 15:44 | -40.03077 | 174.36134 | 26381 ft | 272 kts | 32° |
| 2026-05-05 15:44 | -40.01513 | 174.37503 | 26385 ft | 272 kts | 32° |
| 2026-05-05 15:44 | -39.99937 | 174.38884 | 26390 ft | 272 kts | 32° |
| 2026-05-05 15:44 | -39.98373 | 174.40251 | 26392 ft | 272 kts | 32° |
| 2026-05-05 15:45 | -39.96796 | 174.41628 | 26398 ft | 272 kts | 32° |
| 2026-05-05 15:45 | -39.95221 | 174.43002 | 26400 ft | 272 kts | 32° |
| 2026-05-05 15:45 | -39.93662 | 174.44365 | 26401 ft | 272 kts | 32° |
| 2026-05-05 15:45 | -39.92093 | 174.45732 | 26401 ft | 271 kts | 32° |
| 2026-05-05 15:46 | -39.90529 | 174.47096 | 26401 ft | 271 kts | 32° |
| 2026-05-05 15:46 | -39.88968 | 174.48457 | 26399 ft | 272 kts | 32° |
| 2026-05-05 15:46 | -39.87381 | 174.49840 | 26395 ft | 272 kts | 32° |
| 2026-05-05 15:46 | -39.85865 | 174.51160 | 26394 ft | 272 kts | 32° |
| 2026-05-05 15:47 | -39.84303 | 174.52521 | 26393 ft | 272 kts | 32° |
| 2026-05-05 15:47 | -39.83254 | 174.53432 | 26392 ft | 272 kts | 32° |
| 2026-05-05 15:47 | -39.81145 | 174.55264 | 26393 ft | 272 kts | 32° |
| 2026-05-05 15:47 | -39.79578 | 174.56625 | 26394 ft | 272 kts | 32° |
| 2026-05-05 15:48 | -39.78008 | 174.57988 | 26391 ft | 272 kts | 32° |
| 2026-05-05 15:48 | -39.76422 | 174.59364 | 26391 ft | 272 kts | 32° |
| 2026-05-05 15:48 | -39.74853 | 174.60725 | 26395 ft | 272 kts | 32° |
| 2026-05-05 15:48 | -39.73298 | 174.62073 | 26401 ft | 272 kts | 32° |
| 2026-05-05 15:49 | -39.71731 | 174.63429 | 26398 ft | 272 kts | 32° |
| 2026-05-05 15:49 | -39.70148 | 174.64800 | 26395 ft | 272 kts | 32° |
| 2026-05-05 15:49 | -39.68595 | 174.66144 | 26392 ft | 272 kts | 32° |
| 2026-05-05 15:49 | -39.67000 | 174.67522 | 26394 ft | 271 kts | 32° |
| 2026-05-05 15:50 | -39.65423 | 174.68886 | 26397 ft | 271 kts | 32° |
| 2026-05-05 15:50 | -39.63870 | 174.70226 | 26396 ft | 271 kts | 32° |
| 2026-05-05 15:50 | -39.62289 | 174.71591 | 26395 ft | 272 kts | 32° |
| 2026-05-05 15:50 | -39.60721 | 174.72943 | 26398 ft | 271 kts | 32° |
| 2026-05-05 15:51 | -39.59159 | 174.74291 | 26395 ft | 272 kts | 32° |
| 2026-05-05 15:51 | -39.57587 | 174.75644 | 26393 ft | 272 kts | 32° |
| 2026-05-05 15:51 | -39.56012 | 174.77000 | 26392 ft | 272 kts | 32° |
| 2026-05-05 15:51 | -39.54442 | 174.78351 | 26393 ft | 272 kts | 32° |
| 2026-05-05 15:52 | -39.52864 | 174.79709 | 26394 ft | 272 kts | 32° |
| 2026-05-05 15:52 | -39.51291 | 174.81059 | 26395 ft | 271 kts | 32° |
| 2026-05-05 15:52 | -39.49726 | 174.82405 | 26394 ft | 271 kts | 32° |
| 2026-05-05 15:52 | -39.48141 | 174.83765 | 26395 ft | 271 kts | 32° |
| 2026-05-05 15:53 | -39.46564 | 174.85120 | 26398 ft | 271 kts | 32° |
| 2026-05-05 15:53 | -39.45002 | 174.86459 | 26399 ft | 271 kts | 32° |
| 2026-05-05 15:53 | -39.43427 | 174.87810 | 26398 ft | 271 kts | 32° |
| 2026-05-05 15:53 | -39.41852 | 174.89160 | 26398 ft | 271 kts | 32° |
| 2026-05-05 15:54 | -39.40288 | 174.90500 | 26400 ft | 271 kts | 32° |
| 2026-05-05 15:54 | -39.38711 | 174.91847 | 26401 ft | 271 kts | 32° |
| 2026-05-05 15:54 | -39.37133 | 174.93198 | 26402 ft | 272 kts | 32° |
| 2026-05-05 15:54 | -39.35558 | 174.94545 | 26403 ft | 271 kts | 32° |
| 2026-05-05 15:55 | -39.33980 | 174.95894 | 26406 ft | 271 kts | 32° |
| 2026-05-05 15:55 | -39.32408 | 174.97235 | 26405 ft | 271 kts | 32° |
| 2026-05-05 15:55 | -39.30834 | 174.98579 | 26404 ft | 272 kts | 32° |
| 2026-05-05 15:55 | -39.29275 | 174.99907 | 26403 ft | 272 kts | 32° |
| 2026-05-05 15:56 | -39.27703 | 175.01248 | 26405 ft | 272 kts | 32° |
| 2026-05-05 15:56 | -39.26108 | 175.02609 | 26407 ft | 272 kts | 32° |
| 2026-05-05 15:56 | -39.24540 | 175.03943 | 26406 ft | 272 kts | 32° |
| 2026-05-05 15:56 | -39.22971 | 175.05280 | 26408 ft | 272 kts | 32° |
| 2026-05-05 15:57 | -39.21378 | 175.06635 | 26410 ft | 272 kts | 32° |
| 2026-05-05 15:57 | -39.19808 | 175.07970 | 26410 ft | 272 kts | 32° |
| 2026-05-05 15:57 | -39.18235 | 175.09305 | 26412 ft | 272 kts | 32° |
| 2026-05-05 15:57 | -39.16653 | 175.10649 | 26413 ft | 272 kts | 32° |
| 2026-05-05 15:58 | -39.15092 | 175.11975 | 26414 ft | 272 kts | 32° |
| 2026-05-05 15:58 | -39.13512 | 175.13315 | 26421 ft | 272 kts | 32° |
| 2026-05-05 15:58 | -39.11926 | 175.14659 | 26429 ft | 271 kts | 32° |
| 2026-05-05 15:58 | -39.10365 | 175.15982 | 26430 ft | 271 kts | 32° |
| 2026-05-05 15:59 | -39.08787 | 175.17317 | 26428 ft | 271 kts | 32° |
| 2026-05-05 15:59 | -39.07225 | 175.18642 | 26424 ft | 264 kts | 32° |
| 2026-05-05 15:59 | -39.05714 | 175.19920 | 26423 ft | 255 kts | 31° |
| 2026-05-05 15:59 | -39.04245 | 175.21164 | 26429 ft | 251 kts | 31° |
| 2026-05-05 16:00 | -39.02797 | 175.22388 | 26430 ft | 248 kts | 31° |
| 2026-05-05 16:00 | -39.01373 | 175.23592 | 26435 ft | 245 kts | 31° |
| 2026-05-05 16:00 | -38.99949 | 175.24793 | 26433 ft | 243 kts | 31° |
| 2026-05-05 16:00 | -38.98536 | 175.25986 | 26435 ft | 241 kts | 31° |
| 2026-05-05 16:01 | -38.97158 | 175.27148 | 26434 ft | 239 kts | 31° |
| 2026-05-05 16:01 | -38.95771 | 175.28317 | 26432 ft | 238 kts | 31° |
| 2026-05-05 16:01 | -38.94368 | 175.29497 | 26144 ft | 249 kts | 31° |
| 2026-05-05 16:01 | -38.92900 | 175.30734 | 25844 ft | 255 kts | 31° |
| 2026-05-05 16:02 | -38.91513 | 175.32179 | 25536 ft | 261 kts | 42° |
| 2026-05-05 16:02 | -38.90185 | 175.33826 | 25215 ft | 265 kts | 42° |
| 2026-05-05 16:02 | -38.88856 | 175.35480 | 24898 ft | 268 kts | 42° |
| 2026-05-05 16:02 | -38.87516 | 175.37151 | 24582 ft | 270 kts | 42° |
| 2026-05-05 16:03 | -38.86165 | 175.38834 | 24261 ft | 271 kts | 42° |
| 2026-05-05 16:03 | -38.84820 | 175.40511 | 23942 ft | 272 kts | 42° |
| 2026-05-05 16:03 | -38.83466 | 175.42195 | 23621 ft | 273 kts | 41° |
| 2026-05-05 16:03 | -38.82100 | 175.43895 | 23290 ft | 273 kts | 41° |
| 2026-05-05 16:04 | -38.80744 | 175.45581 | 22963 ft | 274 kts | 41° |
| 2026-05-05 16:04 | -38.79373 | 175.47286 | 22629 ft | 274 kts | 41° |
| 2026-05-05 16:04 | -38.78015 | 175.48973 | 22299 ft | 274 kts | 41° |
| 2026-05-05 16:04 | -38.76644 | 175.50674 | 21827 ft | 278 kts | 41° |
| 2026-05-05 16:05 | -38.75241 | 175.52416 | 21329 ft | 281 kts | 41° |
| 2026-05-05 16:05 | -38.73840 | 175.54153 | 20838 ft | 282 kts | 41° |
| 2026-05-05 16:05 | -38.72436 | 175.55894 | 20348 ft | 283 kts | 41° |
| 2026-05-05 16:05 | -38.71037 | 175.57626 | 19853 ft | 283 kts | 40° |
| 2026-05-05 16:06 | -38.69624 | 175.59378 | 19364 ft | 283 kts | 40° |
| 2026-05-05 16:06 | -38.68200 | 175.61140 | 18870 ft | 283 kts | 40° |
| 2026-05-05 16:06 | -38.66796 | 175.62875 | 18374 ft | 282 kts | 40° |
| 2026-05-05 16:06 | -38.65386 | 175.64615 | 17878 ft | 281 kts | 40° |
| 2026-05-05 16:07 | -38.63991 | 175.66333 | 17379 ft | 280 kts | 40° |
| 2026-05-05 16:07 | -38.62582 | 175.68071 | 16898 ft | 279 kts | 40° |
| 2026-05-05 16:07 | -38.61204 | 175.69771 | 16425 ft | 277 kts | 40° |
| 2026-05-05 16:07 | -38.59823 | 175.71472 | 15944 ft | 276 kts | 41° |
| 2026-05-05 16:08 | -38.58456 | 175.73157 | 15473 ft | 275 kts | 41° |
| 2026-05-05 16:08 | -38.57087 | 175.74844 | 15002 ft | 274 kts | 41° |
| 2026-05-05 16:08 | -38.55724 | 175.76521 | 14526 ft | 273 kts | 42° |
| 2026-05-05 16:08 | -38.54348 | 175.78215 | 14044 ft | 272 kts | 42° |
| 2026-05-05 16:09 | -38.53007 | 175.79863 | 13579 ft | 271 kts | 42° |
| 2026-05-05 16:09 | -38.51653 | 175.81531 | 13108 ft | 270 kts | 42° |
| 2026-05-05 16:09 | -38.50306 | 175.83186 | 12635 ft | 269 kts | 42° |
| 2026-05-05 16:09 | -38.48964 | 175.84836 | 12167 ft | 268 kts | 42° |
| 2026-05-05 16:10 | -38.47477 | 175.86223 | 11688 ft | 264 kts | 23° |
| 2026-05-05 16:10 | -38.45846 | 175.87262 | 11226 ft | 263 kts | 25° |
| 2026-05-05 16:10 | -38.44220 | 175.88300 | 10767 ft | 263 kts | 25° |
| 2026-05-05 16:10 | -38.42580 | 175.89345 | 10317 ft | 261 kts | 25° |
| 2026-05-05 16:11 | -38.40976 | 175.90369 | 9877 ft | 260 kts | 25° |
| 2026-05-05 16:11 | -38.36599 | 175.94344 | 8542 ft | 261 kts | 45° |
| 2026-05-05 16:12 | -38.35397 | 175.96048 | 8125 ft | 258 kts | 46° |
| 2026-05-05 16:12 | -38.33091 | 175.99406 | 7314 ft | 248 kts | 46° |
| 2026-05-05 16:13 | -38.29756 | 176.04279 | 6106 ft | 241 kts | 46° |
| 2026-05-05 16:13 | -38.28655 | 176.05884 | 5702 ft | 238 kts | 46° |
| 2026-05-05 16:13 | -38.27594 | 176.07434 | 5297 ft | 232 kts | 46° |
| 2026-05-05 16:14 | -38.25530 | 176.10446 | 4648 ft | 221 kts | 46° |
| 2026-05-05 16:14 | -38.23535 | 176.13351 | 4075 ft | 213 kts | 46° |
| 2026-05-05 16:15 | -38.21645 | 176.16104 | 4000 ft | 203 kts | 46° |
| 2026-05-05 16:15 | -38.20092 | 176.19112 | 3758 ft | 205 kts | 54° |
| 2026-05-05 16:16 | -38.18600 | 176.22105 | 3180 ft | 200 kts | 54° |
| 2026-05-05 16:16 | -38.17254 | 176.24795 | 2722 ft | 163 kts | 55° |
| 2026-05-05 16:17 | -38.16065 | 176.27167 | 2082 ft | 157 kts | 56° |
| 2026-05-05 16:17 | -38.15497 | 176.28297 | 1920 ft | 129 kts | 56° |
| 2026-05-05 16:18 | -38.14411 | 176.29395 | 1515 ft | 86 kts | 27° |
| 2026-05-05 16:18 | -38.13883 | 176.29727 | 1399 ft | 81 kts | 28° |
| 2026-05-05 16:18 | -38.12838 | 176.30376 | 1162 ft | 87 kts | 27° |
| 2026-05-05 16:19 | -38.12291 | 176.30699 | 1109 ft | 87 kts | 26° |
| 2026-05-05 16:19 | -38.11737 | 176.31021 | 1037 ft | 89 kts | 27° |
| 2026-05-05 16:19 | -38.10748 | 176.31613 | 950 ft | 29 kts | 25° |
| 2026-05-05 16:20 | -38.10730 | 176.31633 | 950 ft | 0 kts | 193° |
| 2026-05-05 16:20 | -38.10792 | 176.31592 | 951 ft | 8 kts | 205° |
| 2026-05-05 16:21 | -38.10894 | 176.31551 | 953 ft | 0 kts | 148° |
| 2026-05-05 16:22 | -38.10957 | 176.31625 | 955 ft | 9 kts | 181° |
| 2026-05-05 16:22 | -38.11021 | 176.31650 | 956 ft | 0 kts | 32° |
| 2026-05-05 16:23 | -38.11020 | 176.31650 | 956 ft | 0 kts | 40° |